sensor_id;sensor_type;location;lat;lon;timestamp;P1;durP1;ratioP1;P2;durP2;ratioP2
60492;SDS011;46341;51.290;-2.474;2023-05-20T00:00:14;14.00;;;12.50;;
60492;SDS011;46341;51.290;-2.474;2023-05-20T00:02:41;14.23;;;12.82;;
60492;SDS011;46341;51.290;-2.474;2023-05-20T00:05:08;13.60;;;12.20;;
60492;SDS011;46341;51.290;-2.474;2023-05-20T00:07:34;14.10;;;12.70;;
60492;SDS011;46341;51.290;-2.474;2023-05-20T00:10:01;15.07;;;13.20;;
60492;SDS011;46341;51.290;-2.474;2023-05-20T00:12:27;14.60;;;12.25;;
60492;SDS011;46341;51.290;-2.474;2023-05-20T00:14:54;16.73;;;13.25;;
60492;SDS011;46341;51.290;-2.474;2023-05-20T00:17:21;13.48;;;12.05;;
60492;SDS011;46341;51.290;-2.474;2023-05-20T00:19:47;15.05;;;13.43;;
60492;SDS011;46341;51.290;-2.474;2023-05-20T00:22:14;14.50;;;13.00;;
60492;SDS011;46341;51.290;-2.474;2023-05-20T00:24:40;14.65;;;13.13;;
60492;SDS011;46341;51.290;-2.474;2023-05-20T00:27:07;15.55;;;12.80;;
60492;SDS011;46341;51.290;-2.474;2023-05-20T00:29:33;15.27;;;13.30;;
60492;SDS011;46341;51.290;-2.474;2023-05-20T00:32:00;17.35;;;13.07;;
60492;SDS011;46341;51.290;-2.474;2023-05-20T00:34:26;15.77;;;12.60;;
60492;SDS011;46341;51.290;-2.474;2023-05-20T00:36:53;13.57;;;12.13;;
60492;SDS011;46341;51.290;-2.474;2023-05-20T00:39:20;15.98;;;11.57;;
60492;SDS011;46341;51.290;-2.474;2023-05-20T00:41:46;15.85;;;11.70;;
60492;SDS011;46341;51.290;-2.474;2023-05-20T00:44:12;13.85;;;12.07;;
60492;SDS011;46341;51.290;-2.474;2023-05-20T00:46:39;12.80;;;10.88;;
60492;SDS011;46341;51.290;-2.474;2023-05-20T00:49:05;13.88;;;11.43;;
60492;SDS011;46341;51.290;-2.474;2023-05-20T00:51:32;11.77;;;10.52;;
60492;SDS011;46341;51.290;-2.474;2023-05-20T00:53:58;13.30;;;11.00;;
60492;SDS011;46341;51.290;-2.474;2023-05-20T00:56:25;12.95;;;9.35;;
60492;SDS011;46341;51.290;-2.474;2023-05-20T00:58:51;13.20;;;9.73;;
60492;SDS011;46341;51.290;-2.474;2023-05-20T01:01:18;12.52;;;8.77;;
60492;SDS011;46341;51.290;-2.474;2023-05-20T01:03:44;11.93;;;9.00;;
60492;SDS011;46341;51.290;-2.474;2023-05-20T01:06:11;11.57;;;7.88;;
60492;SDS011;46341;51.290;-2.474;2023-05-20T01:08:37;9.25;;;8.18;;
60492;SDS011;46341;51.290;-2.474;2023-05-20T01:11:08;10.90;;;8.25;;
60492;SDS011;46341;51.290;-2.474;2023-05-20T01:13:38;9.63;;;7.70;;
60492;SDS011;46341;51.290;-2.474;2023-05-20T01:16:08;8.38;;;7.38;;
60492;SDS011;46341;51.290;-2.474;2023-05-20T01:18:35;8.02;;;7.30;;
60492;SDS011;46341;51.290;-2.474;2023-05-20T01:21:04;10.45;;;7.50;;
60492;SDS011;46341;51.290;-2.474;2023-05-20T01:23:36;11.63;;;7.55;;
60492;SDS011;46341;51.290;-2.474;2023-05-20T01:26:03;8.52;;;7.53;;
60492;SDS011;46341;51.290;-2.474;2023-05-20T01:28:29;9.93;;;7.22;;
60492;SDS011;46341;51.290;-2.474;2023-05-20T01:30:55;9.88;;;7.43;;
60492;SDS011;46341;51.290;-2.474;2023-05-20T01:33:23;11.10;;;8.00;;
60492;SDS011;46341;51.290;-2.474;2023-05-20T01:35:50;13.88;;;9.00;;
60492;SDS011;46341;51.290;-2.474;2023-05-20T01:38:17;14.15;;;8.23;;
60492;SDS011;46341;51.290;-2.474;2023-05-20T01:40:44;11.05;;;7.57;;
60492;SDS011;46341;51.290;-2.474;2023-05-20T01:43:11;11.23;;;8.07;;
60492;SDS011;46341;51.290;-2.474;2023-05-20T01:45:40;11.23;;;8.48;;
60492;SDS011;46341;51.290;-2.474;2023-05-20T01:48:08;11.15;;;7.22;;
60492;SDS011;46341;51.290;-2.474;2023-05-20T01:50:36;9.85;;;7.15;;
60492;SDS011;46341;51.290;-2.474;2023-05-20T01:53:03;11.90;;;7.47;;
60492;SDS011;46341;51.290;-2.474;2023-05-20T01:55:29;10.85;;;7.63;;
60492;SDS011;46341;51.290;-2.474;2023-05-20T01:57:55;11.52;;;7.30;;
60492;SDS011;46341;51.290;-2.474;2023-05-20T02:00:22;9.57;;;7.72;;
60492;SDS011;46341;51.290;-2.474;2023-05-20T02:02:48;12.25;;;7.30;;
60492;SDS011;46341;51.290;-2.474;2023-05-20T02:05:15;12.27;;;7.43;;
60492;SDS011;46341;51.290;-2.474;2023-05-20T02:07:43;8.73;;;7.05;;
60492;SDS011;46341;51.290;-2.474;2023-05-20T02:10:09;10.75;;;7.18;;
60492;SDS011;46341;51.290;-2.474;2023-05-20T02:12:36;10.98;;;7.53;;
60492;SDS011;46341;51.290;-2.474;2023-05-20T02:15:02;10.13;;;6.47;;
60492;SDS011;46341;51.290;-2.474;2023-05-20T02:17:29;9.38;;;7.13;;
60492;SDS011;46341;51.290;-2.474;2023-05-20T02:19:55;11.95;;;7.60;;
60492;SDS011;46341;51.290;-2.474;2023-05-20T02:22:22;8.32;;;6.60;;
60492;SDS011;46341;51.290;-2.474;2023-05-20T02:24:48;10.82;;;7.57;;
60492;SDS011;46341;51.290;-2.474;2023-05-20T02:27:15;7.82;;;6.88;;
60492;SDS011;46341;51.290;-2.474;2023-05-20T02:29:41;11.73;;;7.75;;
60492;SDS011;46341;51.290;-2.474;2023-05-20T02:32:08;9.80;;;7.20;;
60492;SDS011;46341;51.290;-2.474;2023-05-20T02:34:34;11.35;;;7.80;;
60492;SDS011;46341;51.290;-2.474;2023-05-20T02:37:01;10.88;;;7.50;;
60492;SDS011;46341;51.290;-2.474;2023-05-20T02:39:27;13.10;;;7.78;;
60492;SDS011;46341;51.290;-2.474;2023-05-20T02:41:54;10.60;;;7.35;;
60492;SDS011;46341;51.290;-2.474;2023-05-20T02:44:21;13.95;;;8.25;;
60492;SDS011;46341;51.290;-2.474;2023-05-20T02:46:47;10.32;;;7.35;;
60492;SDS011;46341;51.290;-2.474;2023-05-20T02:49:14;12.40;;;7.85;;
60492;SDS011;46341;51.290;-2.474;2023-05-20T02:51:40;10.63;;;7.32;;
60492;SDS011;46341;51.290;-2.474;2023-05-20T02:54:07;10.45;;;7.20;;
60492;SDS011;46341;51.290;-2.474;2023-05-20T02:56:33;12.95;;;7.80;;
60492;SDS011;46341;51.290;-2.474;2023-05-20T02:58:59;10.90;;;7.57;;
60492;SDS011;46341;51.290;-2.474;2023-05-20T03:01:26;8.95;;;7.28;;
60492;SDS011;46341;51.290;-2.474;2023-05-20T03:03:54;10.38;;;8.00;;
60492;SDS011;46341;51.290;-2.474;2023-05-20T03:06:20;9.38;;;7.40;;
60492;SDS011;46341;51.290;-2.474;2023-05-20T03:08:47;13.27;;;7.95;;
60492;SDS011;46341;51.290;-2.474;2023-05-20T03:11:13;8.65;;;6.50;;
60492;SDS011;46341;51.290;-2.474;2023-05-20T03:13:40;9.52;;;7.22;;
60492;SDS011;46341;51.290;-2.474;2023-05-20T03:16:06;9.50;;;6.90;;
60492;SDS011;46341;51.290;-2.474;2023-05-20T03:18:33;8.57;;;7.10;;
60492;SDS011;46341;51.290;-2.474;2023-05-20T03:20:59;11.77;;;7.28;;
60492;SDS011;46341;51.290;-2.474;2023-05-20T03:23:26;9.25;;;7.18;;
60492;SDS011;46341;51.290;-2.474;2023-05-20T03:25:53;9.60;;;7.18;;
60492;SDS011;46341;51.290;-2.474;2023-05-20T03:28:19;8.25;;;7.20;;
60492;SDS011;46341;51.290;-2.474;2023-05-20T03:30:46;9.95;;;7.43;;
60492;SDS011;46341;51.290;-2.474;2023-05-20T03:33:12;9.90;;;6.95;;
60492;SDS011;46341;51.290;-2.474;2023-05-20T03:35:39;12.07;;;7.82;;
60492;SDS011;46341;51.290;-2.474;2023-05-20T03:38:06;12.43;;;7.63;;
60492;SDS011;46341;51.290;-2.474;2023-05-20T03:40:32;11.38;;;7.32;;
60492;SDS011;46341;51.290;-2.474;2023-05-20T03:42:59;10.80;;;7.47;;
60492;SDS011;46341;51.290;-2.474;2023-05-20T03:45:25;11.02;;;7.82;;
60492;SDS011;46341;51.290;-2.474;2023-05-20T03:47:52;11.15;;;7.47;;
60492;SDS011;46341;51.290;-2.474;2023-05-20T03:50:18;8.52;;;7.18;;
60492;SDS011;46341;51.290;-2.474;2023-05-20T03:52:44;10.25;;;7.47;;
60492;SDS011;46341;51.290;-2.474;2023-05-20T03:55:11;9.60;;;7.28;;
60492;SDS011;46341;51.290;-2.474;2023-05-20T03:57:37;11.30;;;8.00;;
60492;SDS011;46341;51.290;-2.474;2023-05-20T04:00:04;11.45;;;8.40;;
60492;SDS011;46341;51.290;-2.474;2023-05-20T04:02:36;10.98;;;8.00;;
60492;SDS011;46341;51.290;-2.474;2023-05-20T04:05:04;11.30;;;8.43;;
60492;SDS011;46341;51.290;-2.474;2023-05-20T04:07:31;12.20;;;9.07;;
60492;SDS011;46341;51.290;-2.474;2023-05-20T04:09:57;12.40;;;8.27;;
60492;SDS011;46341;51.290;-2.474;2023-05-20T04:12:24;10.15;;;8.00;;
60492;SDS011;46341;51.290;-2.474;2023-05-20T04:14:58;12.77;;;8.27;;
60492;SDS011;46341;51.290;-2.474;2023-05-20T04:17:27;11.38;;;8.52;;
60492;SDS011;46341;51.290;-2.474;2023-05-20T04:19:58;12.90;;;8.88;;
60492;SDS011;46341;51.290;-2.474;2023-05-20T04:22:25;10.80;;;7.90;;
60492;SDS011;46341;51.290;-2.474;2023-05-20T04:24:51;13.27;;;8.75;;
60492;SDS011;46341;51.290;-2.474;2023-05-20T04:27:18;14.43;;;8.75;;
60492;SDS011;46341;51.290;-2.474;2023-05-20T04:29:45;11.80;;;9.10;;
60492;SDS011;46341;51.290;-2.474;2023-05-20T04:32:12;11.57;;;8.27;;
60492;SDS011;46341;51.290;-2.474;2023-05-20T04:34:39;10.63;;;8.45;;
60492;SDS011;46341;51.290;-2.474;2023-05-20T04:37:06;15.85;;;9.88;;
60492;SDS011;46341;51.290;-2.474;2023-05-20T04:39:35;11.32;;;8.70;;
60492;SDS011;46341;51.290;-2.474;2023-05-20T04:42:02;13.13;;;8.93;;
60492;SDS011;46341;51.290;-2.474;2023-05-20T04:44:28;10.85;;;8.65;;
60492;SDS011;46341;51.290;-2.474;2023-05-20T04:46:55;12.02;;;8.40;;
60492;SDS011;46341;51.290;-2.474;2023-05-20T04:49:23;12.90;;;9.45;;
60492;SDS011;46341;51.290;-2.474;2023-05-20T04:51:52;10.73;;;8.90;;
60492;SDS011;46341;51.290;-2.474;2023-05-20T04:54:20;12.25;;;9.10;;
60492;SDS011;46341;51.290;-2.474;2023-05-20T04:56:47;10.60;;;8.98;;
60492;SDS011;46341;51.290;-2.474;2023-05-20T04:59:13;11.43;;;9.93;;
60492;SDS011;46341;51.290;-2.474;2023-05-20T05:01:40;13.43;;;9.88;;
60492;SDS011;46341;51.290;-2.474;2023-05-20T05:04:06;14.93;;;10.27;;
60492;SDS011;46341;51.290;-2.474;2023-05-20T05:06:32;13.35;;;10.10;;
60492;SDS011;46341;51.290;-2.474;2023-05-20T05:08:59;12.48;;;9.77;;
60492;SDS011;46341;51.290;-2.474;2023-05-20T05:11:25;12.07;;;10.38;;
60492;SDS011;46341;51.290;-2.474;2023-05-20T05:13:53;12.18;;;10.27;;
60492;SDS011;46341;51.290;-2.474;2023-05-20T05:18:46;14.40;;;10.70;;
60492;SDS011;46341;51.290;-2.474;2023-05-20T05:21:12;14.43;;;10.88;;
60492;SDS011;46341;51.290;-2.474;2023-05-20T05:23:39;13.23;;;10.88;;
60492;SDS011;46341;51.290;-2.474;2023-05-20T05:26:07;13.10;;;10.93;;
60492;SDS011;46341;51.290;-2.474;2023-05-20T05:28:34;14.13;;;11.07;;
60492;SDS011;46341;51.290;-2.474;2023-05-20T05:31:00;13.68;;;11.00;;
60492;SDS011;46341;51.290;-2.474;2023-05-20T05:33:27;18.10;;;11.52;;
60492;SDS011;46341;51.290;-2.474;2023-05-20T05:35:54;13.48;;;10.13;;
60492;SDS011;46341;51.290;-2.474;2023-05-20T05:38:21;13.55;;;10.10;;
60492;SDS011;46341;51.290;-2.474;2023-05-20T05:40:48;12.68;;;10.63;;
60492;SDS011;46341;51.290;-2.474;2023-05-20T05:43:14;15.35;;;9.98;;
60492;SDS011;46341;51.290;-2.474;2023-05-20T05:45:41;11.95;;;9.43;;
60492;SDS011;46341;51.290;-2.474;2023-05-20T05:48:08;13.43;;;10.07;;
60492;SDS011;46341;51.290;-2.474;2023-05-20T05:50:34;11.57;;;9.35;;
60492;SDS011;46341;51.290;-2.474;2023-05-20T05:53:01;13.50;;;9.50;;
60492;SDS011;46341;51.290;-2.474;2023-05-20T05:55:28;11.43;;;10.07;;
60492;SDS011;46341;51.290;-2.474;2023-05-20T05:57:54;12.05;;;9.63;;
60492;SDS011;46341;51.290;-2.474;2023-05-20T06:00:21;14.20;;;9.50;;
60492;SDS011;46341;51.290;-2.474;2023-05-20T06:02:47;16.10;;;9.48;;
60492;SDS011;46341;51.290;-2.474;2023-05-20T06:05:14;11.98;;;9.50;;
60492;SDS011;46341;51.290;-2.474;2023-05-20T06:07:41;13.80;;;9.23;;
60492;SDS011;46341;51.290;-2.474;2023-05-20T06:10:07;13.43;;;8.77;;
60492;SDS011;46341;51.290;-2.474;2023-05-20T06:12:34;11.88;;;8.55;;
60492;SDS011;46341;51.290;-2.474;2023-05-20T06:15:00;14.10;;;8.98;;
60492;SDS011;46341;51.290;-2.474;2023-05-20T06:17:27;11.90;;;8.55;;
60492;SDS011;46341;51.290;-2.474;2023-05-20T06:19:53;10.98;;;8.32;;
60492;SDS011;46341;51.290;-2.474;2023-05-20T06:22:20;9.15;;;8.10;;
60492;SDS011;46341;51.290;-2.474;2023-05-20T06:24:46;10.88;;;8.02;;
60492;SDS011;46341;51.290;-2.474;2023-05-20T06:27:12;10.73;;;7.75;;
60492;SDS011;46341;51.290;-2.474;2023-05-20T06:29:39;12.73;;;7.68;;
60492;SDS011;46341;51.290;-2.474;2023-05-20T06:32:08;11.25;;;7.47;;
60492;SDS011;46341;51.290;-2.474;2023-05-20T06:34:35;10.40;;;7.70;;
60492;SDS011;46341;51.290;-2.474;2023-05-20T06:37:02;13.85;;;7.35;;
60492;SDS011;46341;51.290;-2.474;2023-05-20T06:39:28;10.55;;;7.15;;
60492;SDS011;46341;51.290;-2.474;2023-05-20T06:41:54;11.02;;;6.70;;
60492;SDS011;46341;51.290;-2.474;2023-05-20T06:44:21;11.15;;;6.60;;
60492;SDS011;46341;51.290;-2.474;2023-05-20T06:46:47;9.77;;;6.03;;
60492;SDS011;46341;51.290;-2.474;2023-05-20T06:49:14;9.95;;;5.97;;
60492;SDS011;46341;51.290;-2.474;2023-05-20T06:51:40;7.53;;;6.15;;
60492;SDS011;46341;51.290;-2.474;2023-05-20T06:54:09;10.38;;;6.10;;
60492;SDS011;46341;51.290;-2.474;2023-05-20T06:56:35;10.18;;;5.97;;
60492;SDS011;46341;51.290;-2.474;2023-05-20T06:59:02;10.68;;;5.25;;
60492;SDS011;46341;51.290;-2.474;2023-05-20T07:01:28;11.45;;;5.50;;
60492;SDS011;46341;51.290;-2.474;2023-05-20T07:03:55;9.05;;;5.50;;
60492;SDS011;46341;51.290;-2.474;2023-05-20T07:06:21;9.95;;;5.47;;
60492;SDS011;46341;51.290;-2.474;2023-05-20T07:08:48;8.60;;;5.43;;
60492;SDS011;46341;51.290;-2.474;2023-05-20T07:11:14;7.57;;;5.38;;
60492;SDS011;46341;51.290;-2.474;2023-05-20T07:13:41;6.45;;;5.07;;
60492;SDS011;46341;51.290;-2.474;2023-05-20T07:16:07;6.95;;;4.70;;
60492;SDS011;46341;51.290;-2.474;2023-05-20T07:18:33;8.48;;;5.45;;
60492;SDS011;46341;51.290;-2.474;2023-05-20T07:21:00;6.97;;;4.72;;
60492;SDS011;46341;51.290;-2.474;2023-05-20T07:23:27;11.57;;;5.20;;
60492;SDS011;46341;51.290;-2.474;2023-05-20T07:25:53;7.43;;;4.82;;
60492;SDS011;46341;51.290;-2.474;2023-05-20T07:28:20;9.23;;;5.25;;
60492;SDS011;46341;51.290;-2.474;2023-05-20T07:33:16;6.22;;;4.82;;
60492;SDS011;46341;51.290;-2.474;2023-05-20T07:35:43;6.70;;;4.40;;
60492;SDS011;46341;51.290;-2.474;2023-05-20T07:38:10;6.03;;;4.00;;
60492;SDS011;46341;51.290;-2.474;2023-05-20T07:40:38;7.50;;;4.63;;
60492;SDS011;46341;51.290;-2.474;2023-05-20T07:43:06;9.65;;;4.50;;
60492;SDS011;46341;51.290;-2.474;2023-05-20T07:45:36;4.97;;;3.83;;
60492;SDS011;46341;51.290;-2.474;2023-05-20T07:48:03;6.43;;;3.92;;
60492;SDS011;46341;51.290;-2.474;2023-05-20T07:50:30;6.65;;;4.43;;
60492;SDS011;46341;51.290;-2.474;2023-05-20T07:52:56;6.20;;;3.83;;
60492;SDS011;46341;51.290;-2.474;2023-05-20T07:55:23;6.57;;;3.92;;
60492;SDS011;46341;51.290;-2.474;2023-05-20T07:57:49;5.57;;;3.78;;
60492;SDS011;46341;51.290;-2.474;2023-05-20T08:00:16;6.07;;;4.15;;
60492;SDS011;46341;51.290;-2.474;2023-05-20T08:02:42;5.57;;;3.70;;
60492;SDS011;46341;51.290;-2.474;2023-05-20T08:05:09;7.00;;;3.97;;
60492;SDS011;46341;51.290;-2.474;2023-05-20T08:07:36;7.43;;;3.85;;
60492;SDS011;46341;51.290;-2.474;2023-05-20T08:10:02;8.00;;;3.60;;
60492;SDS011;46341;51.290;-2.474;2023-05-20T08:12:29;6.95;;;3.67;;
60492;SDS011;46341;51.290;-2.474;2023-05-20T08:14:55;5.35;;;3.45;;
60492;SDS011;46341;51.290;-2.474;2023-05-20T08:17:22;8.48;;;4.30;;
60492;SDS011;46341;51.290;-2.474;2023-05-20T08:19:48;4.13;;;3.22;;
60492;SDS011;46341;51.290;-2.474;2023-05-20T08:22:15;5.70;;;3.17;;
60492;SDS011;46341;51.290;-2.474;2023-05-20T08:24:41;5.03;;;3.03;;
60492;SDS011;46341;51.290;-2.474;2023-05-20T08:27:08;5.30;;;3.08;;
60492;SDS011;46341;51.290;-2.474;2023-05-20T08:29:34;4.47;;;2.72;;
60492;SDS011;46341;51.290;-2.474;2023-05-20T08:32:01;5.10;;;2.75;;
60492;SDS011;46341;51.290;-2.474;2023-05-20T08:34:27;4.22;;;2.42;;
60492;SDS011;46341;51.290;-2.474;2023-05-20T08:36:54;4.53;;;2.47;;
60492;SDS011;46341;51.290;-2.474;2023-05-20T08:39:22;3.38;;;2.70;;
60492;SDS011;46341;51.290;-2.474;2023-05-20T08:41:48;6.28;;;2.90;;
60492;SDS011;46341;51.290;-2.474;2023-05-20T08:44:15;6.50;;;2.30;;
60492;SDS011;46341;51.290;-2.474;2023-05-20T08:46:42;4.22;;;2.80;;
60492;SDS011;46341;51.290;-2.474;2023-05-20T08:49:09;4.80;;;2.75;;
60492;SDS011;46341;51.290;-2.474;2023-05-20T08:51:35;4.20;;;2.27;;
60492;SDS011;46341;51.290;-2.474;2023-05-20T08:54:02;4.57;;;2.72;;
60492;SDS011;46341;51.290;-2.474;2023-05-20T08:56:29;4.17;;;2.43;;
60492;SDS011;46341;51.290;-2.474;2023-05-20T08:58:56;5.00;;;1.92;;
60492;SDS011;46341;51.290;-2.474;2023-05-20T09:01:23;6.75;;;2.42;;
60492;SDS011;46341;51.290;-2.474;2023-05-20T09:03:51;3.65;;;2.05;;
60492;SDS011;46341;51.290;-2.474;2023-05-20T09:06:18;3.70;;;2.20;;
60492;SDS011;46341;51.290;-2.474;2023-05-20T09:08:47;4.63;;;2.72;;
60492;SDS011;46341;51.290;-2.474;2023-05-20T09:11:14;3.75;;;2.47;;
60492;SDS011;46341;51.290;-2.474;2023-05-20T09:13:40;4.47;;;2.15;;
60492;SDS011;46341;51.290;-2.474;2023-05-20T09:16:08;3.47;;;2.10;;
60492;SDS011;46341;51.290;-2.474;2023-05-20T09:18:37;4.15;;;2.45;;
60492;SDS011;46341;51.290;-2.474;2023-05-20T09:21:04;4.32;;;2.50;;
60492;SDS011;46341;51.290;-2.474;2023-05-20T09:23:35;3.13;;;2.28;;
60492;SDS011;46341;51.290;-2.474;2023-05-20T09:26:02;3.40;;;1.95;;
60492;SDS011;46341;51.290;-2.474;2023-05-20T09:28:29;4.75;;;2.30;;
60492;SDS011;46341;51.290;-2.474;2023-05-20T09:30:59;4.45;;;2.15;;
60492;SDS011;46341;51.290;-2.474;2023-05-20T09:33:26;5.05;;;2.65;;
60492;SDS011;46341;51.290;-2.474;2023-05-20T09:35:59;4.60;;;2.15;;
60492;SDS011;46341;51.290;-2.474;2023-05-20T09:38:26;3.97;;;2.17;;
60492;SDS011;46341;51.290;-2.474;2023-05-20T09:40:54;4.63;;;2.88;;
60492;SDS011;46341;51.290;-2.474;2023-05-20T09:43:20;3.45;;;2.20;;
60492;SDS011;46341;51.290;-2.474;2023-05-20T09:45:47;5.45;;;2.80;;
60492;SDS011;46341;51.290;-2.474;2023-05-20T09:48:13;3.47;;;2.00;;
60492;SDS011;46341;51.290;-2.474;2023-05-20T09:50:40;3.47;;;2.30;;
60492;SDS011;46341;51.290;-2.474;2023-05-20T09:53:06;4.25;;;2.10;;
60492;SDS011;46341;51.290;-2.474;2023-05-20T09:55:34;5.35;;;2.40;;
60492;SDS011;46341;51.290;-2.474;2023-05-20T09:58:01;4.57;;;2.15;;
60492;SDS011;46341;51.290;-2.474;2023-05-20T10:00:28;5.32;;;2.55;;
60492;SDS011;46341;51.290;-2.474;2023-05-20T10:02:55;3.17;;;1.80;;
60492;SDS011;46341;51.290;-2.474;2023-05-20T10:05:29;3.38;;;1.92;;
60492;SDS011;46341;51.290;-2.474;2023-05-20T10:13:22;5.83;;;3.10;;
60492;SDS011;46341;51.290;-2.474;2023-05-20T10:21:14;4.40;;;2.03;;
60492;SDS011;46341;51.290;-2.474;2023-05-20T10:23:41;4.63;;;2.25;;
60492;SDS011;46341;51.290;-2.474;2023-05-20T10:26:07;4.65;;;2.10;;
60492;SDS011;46341;51.290;-2.474;2023-05-20T10:28:34;5.00;;;2.30;;
60492;SDS011;46341;51.290;-2.474;2023-05-20T10:31:02;4.80;;;2.30;;
60492;SDS011;46341;51.290;-2.474;2023-05-20T10:33:28;4.03;;;2.13;;
60492;SDS011;46341;51.290;-2.474;2023-05-20T10:35:59;4.15;;;2.20;;
60492;SDS011;46341;51.290;-2.474;2023-05-20T10:38:25;6.82;;;3.05;;
60492;SDS011;46341;51.290;-2.474;2023-05-20T10:43:25;3.88;;;2.50;;
60492;SDS011;46341;51.290;-2.474;2023-05-20T10:45:52;4.35;;;2.03;;
60492;SDS011;46341;51.290;-2.474;2023-05-20T10:48:26;4.30;;;1.98;;
60492;SDS011;46341;51.290;-2.474;2023-05-20T10:50:53;3.15;;;2.03;;
60492;SDS011;46341;51.290;-2.474;2023-05-20T10:53:22;5.68;;;2.40;;
60492;SDS011;46341;51.290;-2.474;2023-05-20T10:55:51;3.53;;;2.05;;
60492;SDS011;46341;51.290;-2.474;2023-05-20T10:58:18;3.58;;;2.22;;
60492;SDS011;46341;51.290;-2.474;2023-05-20T11:00:47;5.00;;;2.20;;
60492;SDS011;46341;51.290;-2.474;2023-05-20T11:03:16;4.53;;;2.20;;
60492;SDS011;46341;51.290;-2.474;2023-05-20T11:05:44;3.33;;;1.70;;
60492;SDS011;46341;51.290;-2.474;2023-05-20T11:08:11;3.72;;;1.88;;
60492;SDS011;46341;51.290;-2.474;2023-05-20T11:10:55;5.25;;;2.42;;
60492;SDS011;46341;51.290;-2.474;2023-05-20T11:13:24;3.05;;;1.98;;
60492;SDS011;46341;51.290;-2.474;2023-05-20T11:15:51;3.72;;;2.50;;
60492;SDS011;46341;51.290;-2.474;2023-05-20T11:18:17;3.35;;;2.13;;
60492;SDS011;46341;51.290;-2.474;2023-05-20T11:20:45;4.22;;;2.38;;
60492;SDS011;46341;51.290;-2.474;2023-05-20T11:23:12;4.05;;;2.00;;
60492;SDS011;46341;51.290;-2.474;2023-05-20T11:25:39;4.10;;;2.10;;
60492;SDS011;46341;51.290;-2.474;2023-05-20T11:28:12;2.40;;;1.85;;
60492;SDS011;46341;51.290;-2.474;2023-05-20T11:30:42;5.72;;;2.50;;
60492;SDS011;46341;51.290;-2.474;2023-05-20T11:33:11;3.17;;;2.03;;
60492;SDS011;46341;51.290;-2.474;2023-05-20T11:35:43;3.72;;;2.33;;
60492;SDS011;46341;51.290;-2.474;2023-05-20T11:38:10;3.30;;;2.25;;
60492;SDS011;46341;51.290;-2.474;2023-05-20T11:40:37;5.50;;;2.63;;
60492;SDS011;46341;51.290;-2.474;2023-05-20T11:43:15;2.33;;;1.98;;
60492;SDS011;46341;51.290;-2.474;2023-05-20T11:45:43;3.65;;;2.03;;
60492;SDS011;46341;51.290;-2.474;2023-05-20T11:48:10;3.25;;;2.10;;
60492;SDS011;46341;51.290;-2.474;2023-05-20T11:50:38;4.85;;;2.38;;
60492;SDS011;46341;51.290;-2.474;2023-05-20T11:53:06;4.07;;;2.47;;
60492;SDS011;46341;51.290;-2.474;2023-05-20T11:55:33;5.00;;;2.47;;
60492;SDS011;46341;51.290;-2.474;2023-05-20T11:58:00;4.50;;;2.38;;
60492;SDS011;46341;51.290;-2.474;2023-05-20T12:00:27;3.85;;;1.95;;
60492;SDS011;46341;51.290;-2.474;2023-05-20T12:03:04;3.65;;;2.33;;
60492;SDS011;46341;51.290;-2.474;2023-05-20T12:05:31;4.22;;;2.30;;
60492;SDS011;46341;51.290;-2.474;2023-05-20T12:07:58;4.00;;;2.10;;
60492;SDS011;46341;51.290;-2.474;2023-05-20T12:10:24;3.95;;;1.90;;
60492;SDS011;46341;51.290;-2.474;2023-05-20T12:12:50;3.55;;;2.10;;
60492;SDS011;46341;51.290;-2.474;2023-05-20T12:15:17;5.22;;;2.42;;
60492;SDS011;46341;51.290;-2.474;2023-05-20T12:17:44;3.33;;;1.98;;
60492;SDS011;46341;51.290;-2.474;2023-05-20T12:20:12;3.15;;;1.77;;
60492;SDS011;46341;51.290;-2.474;2023-05-20T12:22:39;5.20;;;2.00;;
60492;SDS011;46341;51.290;-2.474;2023-05-20T12:25:06;3.67;;;2.08;;
60492;SDS011;46341;51.290;-2.474;2023-05-20T12:27:32;3.83;;;1.88;;
60492;SDS011;46341;51.290;-2.474;2023-05-20T12:29:59;3.33;;;1.88;;
60492;SDS011;46341;51.290;-2.474;2023-05-20T12:32:25;4.53;;;1.80;;
60492;SDS011;46341;51.290;-2.474;2023-05-20T12:34:52;5.60;;;2.28;;
60492;SDS011;46341;51.290;-2.474;2023-05-20T12:37:18;2.85;;;1.85;;
60492;SDS011;46341;51.290;-2.474;2023-05-20T12:39:45;3.08;;;2.15;;
60492;SDS011;46341;51.290;-2.474;2023-05-20T12:42:11;3.05;;;1.85;;
60492;SDS011;46341;51.290;-2.474;2023-05-20T12:44:38;3.33;;;2.05;;
60492;SDS011;46341;51.290;-2.474;2023-05-20T12:47:04;5.45;;;1.95;;
60492;SDS011;46341;51.290;-2.474;2023-05-20T12:49:30;4.40;;;2.30;;
60492;SDS011;46341;51.290;-2.474;2023-05-20T12:51:57;4.15;;;2.42;;
60492;SDS011;46341;51.290;-2.474;2023-05-20T12:54:26;4.40;;;1.88;;
60492;SDS011;46341;51.290;-2.474;2023-05-20T12:56:53;4.38;;;2.50;;
60492;SDS011;46341;51.290;-2.474;2023-05-20T12:59:20;4.07;;;2.15;;
60492;SDS011;46341;51.290;-2.474;2023-05-20T13:01:47;3.30;;;1.60;;
60492;SDS011;46341;51.290;-2.474;2023-05-20T13:04:13;3.42;;;2.00;;
60492;SDS011;46341;51.290;-2.474;2023-05-20T13:06:40;4.57;;;1.98;;
60492;SDS011;46341;51.290;-2.474;2023-05-20T13:09:07;3.22;;;1.90;;
60492;SDS011;46341;51.290;-2.474;2023-05-20T13:11:34;3.83;;;2.00;;
60492;SDS011;46341;51.290;-2.474;2023-05-20T13:14:00;2.53;;;1.70;;
60492;SDS011;46341;51.290;-2.474;2023-05-20T13:16:26;5.72;;;2.05;;
60492;SDS011;46341;51.290;-2.474;2023-05-20T13:18:53;4.70;;;1.80;;
60492;SDS011;46341;51.290;-2.474;2023-05-20T13:21:19;3.45;;;2.00;;
60492;SDS011;46341;51.290;-2.474;2023-05-20T13:23:46;3.28;;;1.90;;
60492;SDS011;46341;51.290;-2.474;2023-05-20T13:26:12;2.70;;;1.60;;
60492;SDS011;46341;51.290;-2.474;2023-05-20T13:28:38;3.75;;;1.95;;
60492;SDS011;46341;51.290;-2.474;2023-05-20T13:31:05;2.45;;;1.73;;
60492;SDS011;46341;51.290;-2.474;2023-05-20T13:33:32;3.05;;;1.70;;
60492;SDS011;46341;51.290;-2.474;2023-05-20T13:35:58;4.85;;;1.70;;
60492;SDS011;46341;51.290;-2.474;2023-05-20T13:38:25;4.13;;;1.98;;
60492;SDS011;46341;51.290;-2.474;2023-05-20T13:40:51;3.53;;;1.88;;
60492;SDS011;46341;51.290;-2.474;2023-05-20T13:43:18;4.28;;;1.80;;
60492;SDS011;46341;51.290;-2.474;2023-05-20T13:45:44;3.97;;;1.88;;
60492;SDS011;46341;51.290;-2.474;2023-05-20T13:48:11;3.58;;;1.92;;
60492;SDS011;46341;51.290;-2.474;2023-05-20T13:50:37;2.85;;;1.60;;
60492;SDS011;46341;51.290;-2.474;2023-05-20T13:53:04;3.10;;;1.75;;
60492;SDS011;46341;51.290;-2.474;2023-05-20T13:55:30;3.13;;;1.70;;
60492;SDS011;46341;51.290;-2.474;2023-05-20T13:57:57;3.63;;;1.77;;
60492;SDS011;46341;51.290;-2.474;2023-05-20T14:00:24;4.90;;;1.98;;
60492;SDS011;46341;51.290;-2.474;2023-05-20T14:02:50;2.97;;;1.60;;
60492;SDS011;46341;51.290;-2.474;2023-05-20T14:05:17;2.58;;;1.42;;
60492;SDS011;46341;51.290;-2.474;2023-05-20T14:07:44;3.55;;;1.70;;
60492;SDS011;46341;51.290;-2.474;2023-05-20T14:10:10;5.85;;;1.90;;
60492;SDS011;46341;51.290;-2.474;2023-05-20T14:12:37;4.88;;;1.58;;
60492;SDS011;46341;51.290;-2.474;2023-05-20T14:15:03;3.55;;;1.70;;
60492;SDS011;46341;51.290;-2.474;2023-05-20T14:17:30;2.42;;;1.58;;
60492;SDS011;46341;51.290;-2.474;2023-05-20T14:19:56;3.15;;;1.42;;
60492;SDS011;46341;51.290;-2.474;2023-05-20T14:22:23;3.17;;;1.60;;
60492;SDS011;46341;51.290;-2.474;2023-05-20T14:24:49;3.42;;;1.88;;
60492;SDS011;46341;51.290;-2.474;2023-05-20T14:27:16;3.35;;;1.52;;
60492;SDS011;46341;51.290;-2.474;2023-05-20T14:29:42;3.95;;;1.73;;
60492;SDS011;46341;51.290;-2.474;2023-05-20T14:32:09;5.35;;;1.77;;
60492;SDS011;46341;51.290;-2.474;2023-05-20T14:34:36;2.92;;;1.77;;
60492;SDS011;46341;51.290;-2.474;2023-05-20T14:37:03;4.03;;;1.42;;
60492;SDS011;46341;51.290;-2.474;2023-05-20T14:39:35;4.20;;;1.95;;
60492;SDS011;46341;51.290;-2.474;2023-05-20T14:42:01;4.45;;;1.83;;
60492;SDS011;46341;51.290;-2.474;2023-05-20T14:44:30;2.83;;;1.67;;